createdAt,value
2022-12-08T00:01:20.696Z,100513.59
2022-12-08T00:03:48.148Z,100513.59
2022-12-08T00:06:49.462Z,100510.06
2022-12-08T00:09:39.509Z,100511.91
2022-12-08T00:12:11.785Z,100516.47
2022-12-08T00:14:39.762Z,100516.28
2022-12-08T00:17:08.364Z,100505.63
2022-12-08T00:19:34.992Z,100501.50
2022-12-08T00:22:03.133Z,100496.50
2022-12-08T00:24:31.875Z,100502.97
2022-12-08T00:26:58.445Z,100491.75
2022-12-08T00:29:25.020Z,100489.88
2022-12-08T00:31:51.783Z,100495.91
2022-12-08T00:34:18.758Z,100498.63
2022-12-08T00:36:45.651Z,100489.69
2022-12-08T00:39:13.958Z,100486.53
2022-12-08T00:41:58.918Z,100485.78
2022-12-08T00:44:25.583Z,100486.34
2022-12-08T00:46:52.142Z,100481.41
2022-12-08T00:49:18.839Z,100471.84
2022-12-08T00:51:45.443Z,100480.94
2022-12-08T00:54:12.211Z,100475.94
2022-12-08T00:56:38.910Z,100481.00
2022-12-08T00:59:06.883Z,100484.94
2022-12-08T01:01:34.764Z,100487.81
2022-12-08T01:04:06.326Z,100487.91
2022-12-08T01:06:35.383Z,100488.66
2022-12-08T01:09:03.779Z,100482.88
2022-12-08T01:11:30.366Z,100476.19
2022-12-08T01:13:57.031Z,100477.03
2022-12-08T01:16:28.807Z,100488.66
2022-12-08T01:18:57.132Z,100497.41
2022-12-08T01:21:23.716Z,100476.94
2022-12-08T01:23:50.500Z,100489.69
2022-12-08T01:26:18.803Z,100485.13
2022-12-08T01:28:46.576Z,100496.75
2022-12-08T01:31:16.635Z,100488.47
2022-12-08T01:33:44.270Z,100490.13
2022-12-08T01:36:31.098Z,100482.88
2022-12-08T01:38:59.894Z,100479.16
2022-12-08T01:41:29.289Z,100476.28
2022-12-08T01:44:00.305Z,100470.22
2022-12-08T01:46:29.405Z,100471.06
2022-12-08T01:49:10.969Z,100469.38
2022-12-08T01:51:55.747Z,100460.00
2022-12-08T01:54:25.699Z,100451.47
2022-12-08T01:57:02.988Z,100450.44
2022-12-08T01:59:33.156Z,100452.38
2022-12-08T02:01:59.804Z,100447.56
2022-12-08T02:04:26.464Z,100449.41
2022-12-08T02:06:53.776Z,100447.94
2022-12-08T02:09:22.576Z,100441.13
2022-12-08T02:11:51.155Z,100441.97
2022-12-08T02:14:17.787Z,100443.00
2022-12-08T02:17:05.082Z,100438.63
2022-12-08T02:19:54.089Z,100443.81
2022-12-08T02:22:36.089Z,100433.69
2022-12-08T02:25:24.389Z,100433.03
2022-12-08T02:28:22.831Z,100424.84
2022-12-08T02:31:21.896Z,100425.88
2022-12-08T02:34:06.459Z,100427.19
2022-12-08T02:37:01.683Z,100419.09
2022-12-08T02:39:46.048Z,100413.91
2022-12-08T02:42:26.068Z,100409.78
2022-12-08T02:45:03.751Z,100404.38
2022-12-08T02:47:31.859Z,100396.50
2022-12-08T02:49:59.257Z,100405.88
2022-12-08T02:52:25.922Z,100400.66
2022-12-08T02:55:06.729Z,100394.81
2022-12-08T02:57:55.005Z,100400.66
2022-12-08T03:00:25.033Z,100389.78
2022-12-08T03:03:09.824Z,100393.22
2022-12-08T03:05:42.346Z,100394.25
2022-12-08T03:08:30.493Z,100387.19
2022-12-08T03:11:21.176Z,100376.59
2022-12-08T03:13:54.938Z,100388.22
2022-12-08T03:16:26.382Z,100381.38
2022-12-08T03:18:59.098Z,100376.13
2022-12-08T03:21:26.287Z,100370.16
2022-12-08T03:23:56.896Z,100378.06
2022-12-08T03:26:34.418Z,100372.28
2022-12-08T03:29:01.028Z,100367.06
2022-12-08T03:31:31.634Z,100372.22
2022-12-08T03:34:00.770Z,100361.03
2022-12-08T03:36:28.270Z,100362.16
2022-12-08T03:38:54.908Z,100354.16
2022-12-08T03:41:24.508Z,100359.16
2022-12-08T03:43:57.061Z,100347.16
2022-12-08T03:48:52.573Z,100340.91
2022-12-08T03:51:19.619Z,100342.34
2022-12-08T03:53:46.363Z,100331.75
2022-12-08T03:56:19.904Z,100327.19
2022-12-08T03:58:46.471Z,100318.06
2022-12-08T04:01:13.793Z,100313.91
2022-12-08T04:03:40.376Z,100315.09
2022-12-08T04:06:07.566Z,100320.97
2022-12-08T04:08:34.454Z,100310.19
2022-12-08T04:11:01.051Z,100306.84
2022-12-08T04:13:27.648Z,100301.44
2022-12-08T04:15:54.295Z,100312.03
2022-12-08T04:18:20.891Z,100304.78
2022-12-08T04:20:47.435Z,100306.00
2022-12-08T04:23:14.113Z,100295.59
2022-12-08T04:25:40.788Z,100304.31
2022-12-08T04:28:07.402Z,100295.03
2022-12-08T04:30:34.497Z,100291.69
2022-12-08T04:33:01.102Z,100293.78
2022-12-08T04:35:28.386Z,100292.53
2022-12-08T04:37:55.089Z,100298.06
2022-12-08T04:40:21.708Z,100302.72
2022-12-08T04:42:48.467Z,100302.53
2022-12-08T04:45:15.305Z,100303.75
2022-12-08T04:47:42.132Z,100306.44
2022-12-08T04:50:09.070Z,100303.94
2022-12-08T04:52:35.743Z,100308.31
2022-12-08T04:55:02.631Z,100296.50
2022-12-08T04:57:29.263Z,100302.09
2022-12-08T04:59:55.872Z,100294.53
2022-12-08T05:02:22.491Z,100291.22
2022-12-08T05:04:49.290Z,100287.97
2022-12-08T05:07:16.052Z,100286.09
2022-12-08T05:09:42.672Z,100284.44
2022-12-08T05:12:09.236Z,100278.00
2022-12-08T05:14:35.800Z,100286.72
2022-12-08T05:17:07.816Z,100273.63
2022-12-08T05:19:36.111Z,100275.09
2022-12-08T05:22:02.634Z,100268.28
2022-12-08T05:24:29.189Z,100274.91
2022-12-08T05:26:55.799Z,100275.09
2022-12-08T05:29:22.365Z,100274.91
2022-12-08T05:31:49.012Z,100268.47
2022-12-08T05:34:15.724Z,100264.94
2022-12-08T05:36:42.312Z,100269.13
2022-12-08T05:39:14.300Z,100264.94
2022-12-08T05:41:41.311Z,100258.09
2022-12-08T05:44:08.584Z,100261.22
2022-12-08T05:46:35.924Z,100261.03
2022-12-08T05:49:03.986Z,100261.41
2022-12-08T05:51:30.595Z,100263.53
2022-12-08T05:53:57.334Z,100259.34
2022-12-08T05:56:24.455Z,100264.75
2022-12-08T05:58:51.376Z,100252.94
2022-12-08T06:01:22.304Z,100260.47
2022-12-08T06:03:49.092Z,100260.63
2022-12-08T06:06:15.798Z,100267.25
2022-12-08T06:08:42.378Z,100258.53
2022-12-08T06:11:09.345Z,100256.25
2022-12-08T06:13:35.953Z,100256.25
2022-12-08T06:16:06.661Z,100259.22
2022-12-08T06:18:33.777Z,100260.63
2022-12-08T06:21:19.752Z,100260.91
2022-12-08T06:23:50.883Z,100269.63
2022-12-08T06:26:18.467Z,100257.56
2022-12-08T06:28:45.285Z,100260.25
2022-12-08T06:31:34.756Z,100268.34
2022-12-08T06:34:01.317Z,100264.44
2022-12-08T06:36:29.095Z,100270.88
2022-12-08T06:38:56.569Z,100255.22
2022-12-08T06:41:23.476Z,100271.06
2022-12-08T06:43:50.081Z,100274.38
2022-12-08T06:46:19.571Z,100275.34
2022-12-08T06:48:46.921Z,100284.91
2022-12-08T06:51:20.044Z,100284.06
2022-12-08T06:53:47.228Z,100288.19
2022-12-08T06:56:16.032Z,100296.09
2022-12-08T06:58:46.094Z,100299.56
2022-12-08T07:01:17.132Z,100290.81
2022-12-08T07:03:43.808Z,100286.72
2022-12-08T07:06:16.152Z,100296.28
2022-12-08T07:08:43.246Z,100298.59
2022-12-08T07:11:14.104Z,100290.06
2022-12-08T07:13:43.362Z,100289.78
2022-12-08T07:16:11.703Z,100291.09
2022-12-08T07:18:39.339Z,100300.66
2022-12-08T07:21:10.656Z,100294.81
2022-12-08T07:23:37.618Z,100289.41
2022-12-08T07:26:06.615Z,100292.97
2022-12-08T07:28:35.489Z,100294.66
2022-12-08T07:31:02.588Z,100281.56
2022-12-08T07:33:29.691Z,100284.66
2022-12-08T07:35:57.311Z,100290.88
2022-12-08T07:38:24.632Z,100288.38
2022-12-08T07:40:51.767Z,100284.66
2022-12-08T07:43:18.427Z,100292.53
2022-12-08T07:45:45.541Z,100285.47
2022-12-08T07:48:12.237Z,100285.09
2022-12-08T07:50:39.127Z,100281.16
2022-12-08T07:53:06.579Z,100280.09
2022-12-08T07:55:33.465Z,100288.41
2022-12-08T07:58:00.228Z,100291.59
2022-12-08T08:00:26.853Z,100283.69
2022-12-08T08:02:53.567Z,100281.22
2022-12-08T08:05:20.683Z,100285.38
2022-12-08T08:07:48.345Z,100286.81
2022-12-08T08:10:15.350Z,100287.03
2022-12-08T08:12:41.936Z,100279.28
2022-12-08T08:15:13.936Z,100275.38
2022-12-08T08:17:40.624Z,100287.22
2022-12-08T08:20:08.337Z,100287.22
2022-12-08T08:22:37.017Z,100290.16
2022-12-08T08:25:04.397Z,100287.84
2022-12-08T08:27:30.991Z,100290.91
2022-12-08T08:29:57.547Z,100294.00
2022-12-08T08:32:24.119Z,100291.31
2022-12-08T08:34:52.144Z,100292.63
2022-12-08T08:37:18.879Z,100295.03
2022-12-08T08:39:45.460Z,100299.63
2022-12-08T08:42:12.042Z,100298.38
2022-12-08T08:44:39.036Z,100294.41
2022-12-08T08:47:05.768Z,100298.97
2022-12-08T08:49:32.571Z,100294.63
2022-12-08T08:51:59.192Z,100295.88
2022-12-08T08:54:25.867Z,100295.31
2022-12-08T08:56:52.749Z,100291.13
2022-12-08T08:59:19.327Z,100296.78
2022-12-08T09:01:45.958Z,100297.66
2022-12-08T09:04:12.647Z,100301.84
2022-12-08T09:06:39.361Z,100303.03
2022-12-08T09:09:06.488Z,100304.53
2022-12-08T09:11:33.344Z,100297.22
2022-12-08T09:13:59.938Z,100290.44
2022-12-08T09:16:26.699Z,100279.81
2022-12-08T09:18:53.443Z,100285.66
2022-12-08T09:21:23.360Z,100281.28
2022-12-08T09:23:58.590Z,100277.94
2022-12-08T09:26:27.200Z,100288.50
2022-12-08T09:28:55.158Z,100279.09
2022-12-08T09:31:22.907Z,100284.47
2022-12-08T09:33:53.177Z,100282.13
2022-12-08T09:36:20.699Z,100275.06
2022-12-08T09:38:47.988Z,100273.38
2022-12-08T09:41:38.771Z,100259.63
2022-12-08T09:44:33.568Z,100269.66
2022-12-08T09:47:01.602Z,100256.56
2022-12-08T09:49:41.897Z,100258.03
2022-12-08T09:52:23.186Z,100244.94
2022-12-08T09:54:50.084Z,100248.84
2022-12-08T09:57:20.817Z,100253.41
2022-12-08T09:59:53.611Z,100242.22
2022-12-08T10:02:23.802Z,100242.25
2022-12-08T10:04:59.100Z,100250.97
2022-12-08T10:07:37.778Z,100243.47
2022-12-08T10:10:14.662Z,100237.25
2022-12-08T10:13:08.426Z,100234.69
2022-12-08T10:15:52.859Z,100227.19
2022-12-08T10:18:30.285Z,100226.34
2022-12-08T10:21:11.620Z,100231.13
2022-12-08T10:23:41.097Z,100226.34
2022-12-08T10:26:16.772Z,100230.72
2022-12-08T10:28:45.360Z,100216.00
2022-12-08T10:31:21.486Z,100219.53
2022-12-08T10:33:57.243Z,100219.34
2022-12-08T10:36:27.544Z,100223.06
2022-12-08T10:38:54.126Z,100221.00
2022-12-08T10:41:20.844Z,100220.16
2022-12-08T10:43:50.922Z,100227.06
2022-12-08T10:46:21.035Z,100209.16
2022-12-08T10:49:05.980Z,100207.75
2022-12-08T10:51:37.934Z,100202.63
2022-12-08T10:54:06.225Z,100207.81
2022-12-08T10:56:33.333Z,100208.59
2022-12-08T10:59:26.484Z,100211.75
2022-12-08T11:01:55.263Z,100206.34
2022-12-08T11:04:24.329Z,100201.59
2022-12-08T11:06:51.885Z,100205.38
2022-12-08T11:09:18.745Z,100201.22
2022-12-08T11:11:49.335Z,100195.75
2022-12-08T11:14:22.147Z,100190.34
2022-12-08T11:16:53.160Z,100195.91
2022-12-08T11:19:21.548Z,100205.97
2022-12-08T11:21:48.350Z,100186.88
2022-12-08T11:24:15.045Z,100191.44
2022-12-08T11:26:49.487Z,100192.03
2022-12-08T11:29:17.439Z,100182.66
2022-12-08T11:31:49.978Z,100182.00
2022-12-08T11:34:31.481Z,100179.50
2022-12-08T11:36:59.209Z,100173.03
2022-12-08T11:39:29.804Z,100177.97
2022-12-08T11:41:58.480Z,100175.91
2022-12-08T11:44:31.111Z,100173.25
2022-12-08T11:47:22.557Z,100175.53
2022-12-08T11:49:56.767Z,100168.47
2022-12-08T11:52:26.446Z,100177.81
2022-12-08T11:55:35.219Z,100166.81
2022-12-08T11:58:16.738Z,100168.91
2022-12-08T12:00:43.628Z,100177.63
2022-12-08T12:03:29.754Z,100175.16
2022-12-08T12:06:53.322Z,100164.97
2022-12-08T12:09:40.967Z,100169.72
2022-12-08T12:12:16.763Z,100180.13
2022-12-08T12:15:40.837Z,100174.09
2022-12-08T12:18:34.457Z,100181.97
2022-12-08T12:21:18.387Z,100179.25
2022-12-08T12:23:56.296Z,100176.56
2022-12-08T12:26:26.314Z,100176.09
2022-12-08T12:28:57.883Z,100180.47
2022-12-08T12:31:47.461Z,100162.41
2022-12-08T12:34:30.051Z,100159.91
2022-12-08T12:37:05.391Z,100166.34
2022-12-08T12:39:45.762Z,100166.78
2022-12-08T12:42:38.047Z,100163.44
2022-12-08T12:45:27.134Z,100148.28
2022-12-08T12:47:57.270Z,100151.81
2022-12-08T12:50:33.233Z,100157.63
2022-12-08T12:53:26.079Z,100159.50
2022-12-08T12:55:59.858Z,100160.75
2022-12-08T12:58:32.134Z,100159.09
2022-12-08T13:01:13.801Z,100163.84
2022-12-08T13:03:41.571Z,100163.63
2022-12-08T13:06:14.557Z,100162.97
2022-12-08T13:08:51.333Z,100165.50
2022-12-08T13:11:18.199Z,100165.50
2022-12-08T13:14:06.054Z,100165.50
2022-12-08T13:16:37.542Z,100161.09
2022-12-08T13:19:11.595Z,100157.13
2022-12-08T13:21:39.833Z,100161.28
2022-12-08T13:24:14.256Z,100162.78
2022-12-08T13:26:48.908Z,100160.94
2022-12-08T13:29:25.595Z,100165.28
2022-12-08T13:32:03.382Z,100168.00
2022-12-08T13:34:42.281Z,100164.47
2022-12-08T13:37:11.594Z,100166.69
2022-12-08T13:39:40.906Z,100168.34
2022-12-08T13:42:33.605Z,100170.44
2022-12-08T13:45:39.639Z,100166.47
2022-12-08T13:49:03.386Z,100168.75
2022-12-08T13:53:22.440Z,100165.84
2022-12-08T13:57:08.509Z,100169.56
2022-12-08T13:59:44.655Z,100170.19
2022-12-08T14:02:47.039Z,100169.38
2022-12-08T14:05:18.557Z,100162.50
2022-12-08T14:07:48.352Z,100163.97
2022-12-08T14:10:22.147Z,100169.56
2022-12-08T14:12:55.461Z,100174.75
2022-12-08T14:15:24.977Z,100168.91
2022-12-08T14:17:53.511Z,100171.59
2022-12-08T14:20:28.527Z,100173.31
2022-12-08T14:22:55.397Z,100168.28
2022-12-08T14:25:23.307Z,100178.03
2022-12-08T14:27:56.371Z,100168.28
2022-12-08T14:30:31.132Z,100181.56
2022-12-08T14:32:59.425Z,100181.38
2022-12-08T14:35:30.421Z,100182.84
2022-12-08T14:38:12.964Z,100181.56
2022-12-08T14:40:44.925Z,100184.09
2022-12-08T14:43:16.492Z,100188.25
2022-12-08T14:45:43.016Z,100192.19
2022-12-08T14:48:27.761Z,100184.09
2022-12-08T14:51:01.697Z,100191.16
2022-12-08T14:53:39.886Z,100181.13
2022-12-08T14:56:46.991Z,100170.78
2022-12-08T14:59:13.544Z,100177.00
2022-12-08T15:01:41.234Z,100176.00
2022-12-08T15:04:14.842Z,100176.63
2022-12-08T15:07:18.748Z,100174.50
2022-12-08T15:09:49.955Z,100176.00
2022-12-08T15:12:26.761Z,100182.41
2022-12-08T15:15:14.378Z,100178.44
2022-12-08T15:17:44.678Z,100183.06
2022-12-08T15:20:35.937Z,100185.09
2022-12-08T15:23:03.165Z,100188.00
2022-12-08T15:25:30.054Z,100191.09
2022-12-08T15:27:57.978Z,100181.34
2022-12-08T15:30:28.655Z,100190.88
2022-12-08T15:32:56.256Z,100197.56
2022-12-08T15:35:23.969Z,100190.75
2022-12-08T15:37:50.813Z,100194.06
2022-12-08T15:40:20.235Z,100202.44
2022-12-08T15:42:47.201Z,100196.56
2022-12-08T15:45:14.998Z,100203.84
2022-12-08T15:47:43.660Z,100195.75
2022-12-08T15:50:18.355Z,100200.75
2022-12-08T15:52:45.291Z,100208.19
2022-12-08T15:55:13.857Z,100204.47
2022-12-08T15:58:44.652Z,100205.13
2022-12-08T16:00:53.014Z,100210.13
2022-12-08T16:04:13.910Z,100205.97
2022-12-08T16:09:42.085Z,100207.44
2022-12-08T16:18:24.016Z,100203.84
2022-12-08T16:21:13.294Z,100209.44
2022-12-08T16:23:45.438Z,100209.88
2022-12-08T16:29:17.598Z,100217.94
2022-12-08T16:31:44.323Z,100217.09
2022-12-08T16:34:10.903Z,100227.06
2022-12-08T16:36:37.513Z,100225.81
2022-12-08T16:39:04.109Z,100238.47
2022-12-08T16:41:49.462Z,100231.97
2022-12-08T16:44:16.047Z,100231.97
2022-12-08T16:46:42.867Z,100229.94
2022-12-08T16:49:09.893Z,100224.72
2022-12-08T16:51:36.452Z,100227.63
2022-12-08T16:54:03.197Z,100234.03
2022-12-08T16:56:33.267Z,100234.03
2022-12-08T16:59:01.820Z,100237.97
2022-12-08T17:01:28.579Z,100225.97
2022-12-08T17:04:29.346Z,100222.84
2022-12-08T17:06:42.031Z,100218.91
2022-12-08T17:09:08.635Z,100240.06
2022-12-08T17:11:42.393Z,100231.34
2022-12-08T17:14:10.745Z,100237.00
2022-12-08T17:16:37.402Z,100227.25
2022-12-08T17:19:04.256Z,100239.03
2022-12-08T17:21:31.076Z,100238.88
2022-12-08T17:23:57.693Z,100241.56
2022-12-08T17:26:24.279Z,100235.16
2022-12-08T17:29:06.301Z,100242.00
2022-12-08T17:31:33.611Z,100244.63
2022-12-08T17:34:01.744Z,100238.69
2022-12-08T17:36:28.704Z,100236.41
2022-12-08T17:38:56.459Z,100245.09
2022-12-08T17:41:23.173Z,100247.00
2022-12-08T17:43:49.953Z,100247.81
2022-12-08T17:46:18.771Z,100260.09
2022-12-08T17:48:45.573Z,100264.88
2022-12-08T17:51:12.280Z,100265.25
2022-12-08T17:53:40.713Z,100263.00
2022-12-08T17:56:17.574Z,100252.84
2022-12-08T17:58:45.643Z,100256.34
2022-12-08T18:01:14.157Z,100266.72
2022-12-08T18:03:40.782Z,100265.06
2022-12-08T18:06:12.631Z,100254.69
2022-12-08T18:08:40.194Z,100261.34
2022-12-08T18:11:16.799Z,100265.69
2022-12-08T18:13:43.707Z,100258.44
2022-12-08T18:16:11.157Z,100265.06
2022-12-08T18:18:37.788Z,100263.84
2022-12-08T18:21:04.770Z,100268.78
2022-12-08T18:23:31.381Z,100258.44
2022-12-08T18:25:57.982Z,100262.38
2022-12-08T18:28:24.615Z,100251.78
2022-12-08T18:30:51.552Z,100256.13
2022-12-08T18:33:18.179Z,100258.19
2022-12-08T18:35:44.733Z,100257.81
2022-12-08T18:38:11.303Z,100255.50
2022-12-08T18:40:37.933Z,100267.13
2022-12-08T18:43:04.546Z,100268.34
2022-12-08T18:45:31.154Z,100262.31
2022-12-08T18:47:57.729Z,100265.19
2022-12-08T18:50:24.322Z,100269.38
2022-12-08T18:52:51.545Z,100270.59
2022-12-08T18:55:18.186Z,100267.97
2022-12-08T18:57:44.829Z,100270.66
2022-12-08T19:00:15.056Z,100275.81
2022-12-08T19:02:41.800Z,100271.88
2022-12-08T19:05:10.684Z,100282.91
2022-12-08T19:07:37.679Z,100279.78
2022-12-08T19:10:06.074Z,100278.34
2022-12-08T19:12:32.986Z,100284.38
2022-12-08T19:14:59.609Z,100287.09
2022-12-08T19:17:26.208Z,100287.69
2022-12-08T19:19:52.776Z,100293.72
2022-12-08T19:22:19.354Z,100293.50
2022-12-08T19:24:46.246Z,100297.88
2022-12-08T19:27:12.836Z,100298.53
2022-12-08T19:29:39.441Z,100297.88
2022-12-08T19:32:06.152Z,100298.28
2022-12-08T19:34:32.786Z,100294.31
2022-12-08T19:36:59.359Z,100307.00
2022-12-08T19:39:44.458Z,100303.03
2022-12-08T19:42:38.535Z,100304.47
2022-12-08T19:45:07.133Z,100299.09
2022-12-08T19:47:34.042Z,100299.09
2022-12-08T19:50:20.753Z,100291.00
2022-12-08T19:52:47.385Z,100307.41
2022-12-08T19:55:14.091Z,100311.38
2022-12-08T19:57:40.702Z,100302.44
2022-12-08T20:00:09.522Z,100308.50
2022-12-08T20:02:37.095Z,100320.97
2022-12-08T20:05:05.303Z,100313.69
2022-12-08T20:07:31.910Z,100314.91
2022-12-08T20:09:58.548Z,100310.38
2022-12-08T20:12:25.143Z,100323.19
2022-12-08T20:14:53.034Z,100318.44
2022-12-08T20:17:19.608Z,100320.56
2022-12-08T20:19:46.590Z,100320.66
2022-12-08T20:22:13.667Z,100321.91
2022-12-08T20:24:40.266Z,100324.81
2022-12-08T20:27:06.922Z,100325.25
2022-12-08T20:29:33.651Z,100320.88
2022-12-08T20:32:00.345Z,100324.41
2022-12-08T20:34:27.084Z,100316.53
2022-12-08T20:36:53.710Z,100320.88
2022-12-08T20:39:20.379Z,100315.06
2022-12-08T20:41:47.029Z,100318.59
2022-12-08T20:44:13.750Z,100318.19
2022-12-08T20:46:43.771Z,100336.03
2022-12-08T20:49:13.141Z,100334.44
2022-12-08T20:51:39.794Z,100339.56
2022-12-08T20:54:06.451Z,100339.38
2022-12-08T20:56:33.160Z,100342.91
2022-12-08T20:59:00.082Z,100337.72
2022-12-08T21:01:26.860Z,100347.28
2022-12-08T21:03:54.260Z,100349.16
2022-12-08T21:06:24.530Z,100350.84
2022-12-08T21:08:51.824Z,100351.00
2022-12-08T21:11:18.987Z,100341.88
2022-12-08T21:13:46.880Z,100347.47
2022-12-08T21:16:15.147Z,100356.47
2022-12-08T21:18:42.515Z,100348.78
2022-12-08T21:21:12.275Z,100358.97
2022-12-08T21:23:39.326Z,100354.81
2022-12-08T21:26:14.978Z,100359.19
2022-12-08T21:28:42.274Z,100361.44
2022-12-08T21:31:10.370Z,100362.91
2022-12-08T21:33:37.866Z,100355.97
2022-12-08T21:36:09.384Z,100372.22
2022-12-08T21:38:37.832Z,100362.47
2022-12-08T21:41:10.398Z,100368.09
2022-12-08T21:43:37.780Z,100360.78
2022-12-08T21:46:05.284Z,100374.09
2022-12-08T21:48:32.301Z,100377.63
2022-12-08T21:51:05.024Z,100366.84
2022-12-08T21:53:32.036Z,100368.44
2022-12-08T21:55:58.824Z,100369.72
2022-12-08T21:58:26.444Z,100363.88
2022-12-08T22:00:53.350Z,100372.59
2022-12-08T22:03:20.213Z,100369.84
2022-12-08T22:05:47.032Z,100372.97
2022-12-08T22:08:13.816Z,100380.84
2022-12-08T22:10:40.663Z,100378.13
2022-12-08T22:13:07.362Z,100371.25
2022-12-08T22:15:34.221Z,100373.38
2022-12-08T22:18:01.077Z,100374.97
2022-12-08T22:20:27.818Z,100374.97
2022-12-08T22:22:54.553Z,100378.50
2022-12-08T22:25:21.195Z,100380.00
2022-12-08T22:27:47.853Z,100377.66
2022-12-08T22:30:14.593Z,100384.16
2022-12-08T22:32:42.016Z,100373.38
2022-12-08T22:35:09.654Z,100377.31
2022-12-08T22:37:36.306Z,100381.19
2022-12-08T22:40:03.173Z,100374.59
2022-12-08T22:42:30.224Z,100387.91
2022-12-08T22:44:56.779Z,100379.16
2022-12-08T22:47:23.516Z,100378.25
2022-12-08T22:49:50.079Z,100378.69
2022-12-08T22:52:16.686Z,100384.47
2022-12-08T22:54:43.366Z,100379.91
2022-12-08T22:57:10.288Z,100390.50
2022-12-08T22:59:37.574Z,100381.59
2022-12-08T23:02:04.319Z,100388.84
2022-12-08T23:04:31.160Z,100386.97
2022-12-08T23:06:57.870Z,100386.16
2022-12-08T23:09:24.467Z,100385.94
2022-12-08T23:11:51.538Z,100383.25
2022-12-08T23:14:18.082Z,100383.88
2022-12-08T23:16:44.992Z,100383.97
2022-12-08T23:19:11.888Z,100376.47
2022-12-08T23:21:39.035Z,100374.22
2022-12-08T23:24:05.854Z,100374.59
2022-12-08T23:26:34.857Z,100378.38
2022-12-08T23:29:01.712Z,100377.09
2022-12-08T23:31:28.476Z,100378.56
2022-12-08T23:33:55.159Z,100376.06
2022-12-08T23:36:26.264Z,100379.81
2022-12-08T23:38:54.453Z,100376.63
2022-12-08T23:41:21.085Z,100373.56
2022-12-08T23:43:51.381Z,100375.44
2022-12-08T23:46:21.073Z,100383.13
2022-12-08T23:48:48.045Z,100373.78
2022-12-08T23:51:15.037Z,100382.03
2022-12-08T23:53:42.205Z,100381.03
2022-12-08T23:56:12.204Z,100385.00
2022-12-08T23:58:40.168Z,100384.16
